Time;durP1;ratioP1;P1;durP2;ratioP2;P2;SDS_P1;SDS_P2;PMS_P1;PMS_P2;Temp;Humidity;BMP_temperature;BMP_pressure;BME280_temperature;BME280_humidity;BME280_pressure;Samples;Min_cycle;Max_cycle;Signal;HPM_P1;HPM_P2
2023/12/22 00:00:55;;;;;;;3.50;0.80;;;4.90;99.90;;;;;;7356169;32;20103;-56
2023/12/22 00:04:57;;;;;;;7.25;0.70;;;4.90;99.90;;;;;;7349879;32;20103;-58
2023/12/22 00:08:59;;;;;;;3.22;0.75;;;4.90;99.90;;;;;;7354597;32;20103;-56
2023/12/22 00:13:00;;;;;;;6.45;1.33;;;4.90;99.90;;;;;;7360646;32;20281;-57
2023/12/22 00:17:02;;;;;;;10.57;1.02;;;5.00;99.90;;;;;;7346661;32;20107;-56
2023/12/22 00:21:04;;;;;;;8.68;0.90;;;5.00;99.90;;;;;;7346916;32;20102;-57
2023/12/22 00:25:07;;;;;;;8.00;0.90;;;5.00;99.90;;;;;;7357923;32;20129;-56
2023/12/22 00:29:09;;;;;;;5.40;0.52;;;5.00;99.90;;;;;;7366965;32;20541;-56
2023/12/22 00:33:11;;;;;;;5.95;0.73;;;5.00;99.90;;;;;;7352884;32;20256;-57
2023/12/22 00:37:13;;;;;;;6.22;0.70;;;5.00;99.90;;;;;;7361257;32;20099;-56
2023/12/22 00:41:15;;;;;;;7.93;0.80;;;5.10;99.90;;;;;;7354894;32;20131;-57
2023/12/22 00:45:17;;;;;;;4.05;0.70;;;5.10;99.90;;;;;;7344625;32;20115;-57
2023/12/22 00:49:21;;;;;;;8.80;0.88;;;5.20;99.90;;;;;;7362256;32;20129;-56
2023/12/22 00:53:23;;;;;;;13.10;1.37;;;5.20;99.90;;;;;;7356334;32;20154;-56
2023/12/22 00:57:25;;;;;;;7.25;0.90;;;5.20;99.90;;;;;;7351329;32;20104;-57
2023/12/22 01:01:27;;;;;;;5.15;1.15;;;5.30;99.90;;;;;;7356178;32;20164;-57
2023/12/22 01:05:29;;;;;;;8.70;1.55;;;5.40;99.90;;;;;;7354071;32;20534;-56
2023/12/22 01:09:31;;;;;;;10.25;1.25;;;5.40;99.90;;;;;;7360789;32;20197;-57
2023/12/22 01:13:33;;;;;;;8.65;1.00;;;5.50;99.90;;;;;;7368185;32;20102;-54
2023/12/22 01:17:35;;;;;;;9.13;1.20;;;5.50;99.90;;;;;;7354733;32;20674;-54
2023/12/22 01:21:37;;;;;;;7.85;1.08;;;5.60;99.90;;;;;;7342212;32;20248;-55
2023/12/22 01:25:39;;;;;;;8.60;1.10;;;5.60;99.90;;;;;;7352069;32;20221;-54
2023/12/22 01:29:40;;;;;;;8.50;1.25;;;5.60;99.90;;;;;;7343850;32;20193;-55
2023/12/22 01:33:42;;;;;;;9.65;1.00;;;5.60;99.90;;;;;;7345662;32;20146;-56
2023/12/22 01:37:47;;;;;;;11.35;1.25;;;5.60;99.90;;;;;;7342013;32;20174;-55
2023/12/22 01:41:49;;;;;;;4.93;0.88;;;5.60;99.90;;;;;;7347208;32;20130;-55
2023/12/22 01:45:58;;;;;;;13.18;1.20;;;5.70;99.90;;;;;;7354352;32;20662;-55
2023/12/22 01:50:00;;;;;;;10.52;1.20;;;5.70;99.90;;;;;;7349608;32;20129;-54
2023/12/22 01:54:03;;;;;;;8.68;1.00;;;5.80;99.90;;;;;;7344130;32;20222;-55
2023/12/22 01:58:04;;;;;;;6.85;1.00;;;5.70;99.90;;;;;;7341211;32;20107;-54
2023/12/22 02:02:06;;;;;;;7.57;1.17;;;5.70;99.90;;;;;;7361494;32;20142;-55
2023/12/22 02:06:08;;;;;;;7.95;1.00;;;5.70;99.90;;;;;;7357178;32;20178;-56
2023/12/22 02:10:10;;;;;;;6.22;0.80;;;5.50;99.90;;;;;;7342315;32;20202;-56
2023/12/22 02:14:12;;;;;;;5.82;0.90;;;5.50;99.90;;;;;;7341211;32;20182;-56
2023/12/22 02:18:42;;;;;;;10.52;1.10;;;5.40;99.90;;;;;;7349047;32;20116;-56
2023/12/22 02:22:43;;;;;;;3.92;0.50;;;5.30;99.90;;;;;;7357827;32;20125;-56
2023/12/22 02:26:47;;;;;;;6.68;0.82;;;5.00;99.90;;;;;;7346900;32;20106;-55
2023/12/22 02:31:09;;;;;;;2.83;0.40;;;4.80;99.90;;;;;;7359041;32;20129;-55
2023/12/22 02:35:16;;;;;;;10.45;0.80;;;4.70;99.90;;;;;;7359855;32;20243;-56
2023/12/22 02:39:19;;;;;;;4.68;0.62;;;4.70;99.90;;;;;;7354676;32;20576;-56
2023/12/22 02:43:22;;;;;;;5.10;0.62;;;4.60;99.90;;;;;;7345787;32;20203;-57
2023/12/22 02:47:23;;;;;;;6.18;0.80;;;4.60;99.90;;;;;;7357397;32;20186;-57
2023/12/22 02:51:25;;;;;;;2.87;0.60;;;4.70;99.90;;;;;;7362963;32;20115;-56
2023/12/22 02:55:27;;;;;;;7.93;0.85;;;4.70;99.90;;;;;;7361232;32;20476;-56
2023/12/22 02:59:29;;;;;;;7.00;1.27;;;4.70;99.90;;;;;;7355173;32;20315;-56
2023/12/22 03:03:31;;;;;;;7.62;0.95;;;4.60;99.90;;;;;;7359498;32;20349;-56
2023/12/22 03:07:33;;;;;;;7.62;1.48;;;4.60;99.90;;;;;;7357964;32;20123;-57
2023/12/22 03:11:35;;;;;;;5.95;1.10;;;4.60;99.90;;;;;;7348578;32;20864;-56
2023/12/22 03:15:37;;;;;;;6.55;1.25;;;4.60;99.90;;;;;;7359227;32;20106;-56
2023/12/22 03:19:39;;;;;;;7.47;1.65;;;4.70;99.90;;;;;;7359032;32;20125;-56
2023/12/22 03:23:41;;;;;;;6.85;1.35;;;4.80;99.90;;;;;;7362810;32;20198;-55
2023/12/22 03:27:42;;;;;;;11.18;1.60;;;4.80;99.90;;;;;;7359018;32;20391;-56
2023/12/22 03:31:45;;;;;;;8.75;1.27;;;4.80;99.90;;;;;;7359101;32;20099;-55
2023/12/22 03:35:47;;;;;;;5.82;1.48;;;4.70;99.90;;;;;;7350990;32;20147;-56
2023/12/22 03:39:48;;;;;;;13.55;1.85;;;4.70;99.90;;;;;;7357213;32;20157;-56
2023/12/22 03:43:50;;;;;;;11.35;1.42;;;4.60;99.90;;;;;;7350827;32;20127;-56
2023/12/22 03:47:53;;;;;;;6.87;1.17;;;4.60;99.90;;;;;;7363610;32;20130;-56
2023/12/22 03:51:55;;;;;;;9.93;1.17;;;4.50;99.90;;;;;;7357164;32;20103;-56
2023/12/22 03:55:56;;;;;;;9.63;0.93;;;4.40;99.90;;;;;;7360750;32;20214;-56
2023/12/22 03:59:58;;;;;;;6.15;0.77;;;4.40;99.90;;;;;;7361219;32;20411;-56
2023/12/22 04:04:00;;;;;;;6.37;1.00;;;4.40;99.90;;;;;;7361464;32;20107;-55
2023/12/22 04:08:02;;;;;;;6.95;1.08;;;4.40;99.90;;;;;;7358862;32;20233;-56
2023/12/22 04:12:04;;;;;;;6.37;1.58;;;4.50;99.90;;;;;;7353702;32;20182;-57
2023/12/22 04:16:06;;;;;;;6.57;0.90;;;4.60;99.90;;;;;;7353996;32;20103;-54
2023/12/22 04:20:08;;;;;;;10.20;1.20;;;4.60;99.90;;;;;;7346442;32;20240;-56
2023/12/22 04:24:10;;;;;;;5.15;1.40;;;4.60;99.90;;;;;;7358230;32;20130;-56
2023/12/22 04:28:12;;;;;;;8.40;1.20;;;4.70;99.90;;;;;;7354978;32;20186;-58
2023/12/22 04:32:14;;;;;;;16.40;1.12;;;4.70;99.90;;;;;;7342605;32;20507;-55
2023/12/22 04:36:16;;;;;;;8.35;1.40;;;4.70;99.90;;;;;;7352691;32;20123;-55
2023/12/22 04:40:18;;;;;;;17.15;1.90;;;4.80;99.90;;;;;;7346300;32;20219;-55
2023/12/22 04:44:19;;;;;;;13.45;1.58;;;4.80;99.90;;;;;;7357669;32;20190;-56
2023/12/22 04:48:21;;;;;;;11.27;1.30;;;4.90;99.90;;;;;;7359863;32;20138;-55
2023/12/22 04:52:23;;;;;;;12.27;2.22;;;5.00;99.90;;;;;;7359751;32;20194;-55
2023/12/22 04:56:26;;;;;;;8.63;1.25;;;5.10;99.90;;;;;;7354400;32;20191;-55
2023/12/22 05:00:28;;;;;;;13.55;2.28;;;5.20;99.90;;;;;;7366623;32;20252;-56
2023/12/22 05:04:30;;;;;;;15.80;1.75;;;5.30;99.90;;;;;;7359957;32;20225;-56
2023/12/22 05:08:31;;;;;;;14.02;1.70;;;5.60;99.90;;;;;;7358156;32;20126;-55
2023/12/22 05:12:33;;;;;;;14.48;1.77;;;5.70;99.90;;;;;;7358189;32;20541;-55
2023/12/22 05:16:35;;;;;;;11.55;1.77;;;5.80;99.90;;;;;;7359935;32;20159;-56
2023/12/22 05:20:37;;;;;;;16.95;2.30;;;5.90;99.90;;;;;;7355693;32;20493;-55
2023/12/22 05:24:38;;;;;;;15.32;2.10;;;5.90;99.90;;;;;;7344249;32;20136;-55
2023/12/22 05:28:40;;;;;;;16.33;1.92;;;5.90;99.90;;;;;;7361251;32;20194;-56
2023/12/22 05:32:43;;;;;;;17.15;2.22;;;5.80;99.90;;;;;;7357268;32;20225;-55
2023/12/22 05:36:44;;;;;;;13.52;2.33;;;5.90;99.90;;;;;;7349390;32;20126;-55
2023/12/22 05:40:48;;;;;;;7.72;1.85;;;5.80;99.90;;;;;;7350655;32;20181;-55
2023/12/22 05:44:50;;;;;;;10.50;1.67;;;5.80;99.90;;;;;;7352781;32;20122;-56
2023/12/22 05:48:51;;;;;;;7.18;1.12;;;5.60;99.90;;;;;;7352967;32;20123;-56
2023/12/22 05:52:57;;;;;;;10.50;1.10;;;5.50;99.90;;;;;;7345948;32;20129;-56
2023/12/22 05:56:59;;;;;;;9.00;1.05;;;5.40;99.90;;;;;;7356358;32;20099;-55
2023/12/22 06:01:01;;;;;;;8.50;0.93;;;5.40;99.90;;;;;;7364588;32;20103;-57
2023/12/22 06:05:03;;;;;;;5.47;1.02;;;5.40;99.90;;;;;;7357527;32;20443;-56
2023/12/22 06:09:05;;;;;;;6.40;1.12;;;5.30;99.90;;;;;;7373625;32;20130;-56
2023/12/22 06:13:07;;;;;;;8.88;1.30;;;5.30;99.90;;;;;;7364307;32;20102;-56
2023/12/22 06:17:09;;;;;;;8.55;1.30;;;5.30;99.90;;;;;;7354546;32;20162;-56
2023/12/22 06:21:10;;;;;;;10.20;1.90;;;5.30;99.90;;;;;;7360343;32;20118;-56
2023/12/22 06:25:12;;;;;;;7.12;1.00;;;5.30;99.90;;;;;;7370765;32;20881;-56
2023/12/22 06:29:15;;;;;;;11.68;1.10;;;5.30;99.90;;;;;;7372304;32;20126;-56
2023/12/22 06:33:17;;;;;;;14.52;1.45;;;5.30;99.90;;;;;;7371167;32;20164;-56
2023/12/22 06:37:19;;;;;;;9.05;1.27;;;5.20;99.90;;;;;;7376655;32;20106;-56
2023/12/22 06:41:27;;;;;;;5.85;1.10;;;5.30;99.90;;;;;;7364932;32;20169;-55
2023/12/22 06:45:29;;;;;;;12.37;1.85;;;5.20;99.90;;;;;;7371214;32;20123;-56
2023/12/22 06:49:31;;;;;;;10.55;2.55;;;5.20;99.90;;;;;;7366915;32;20491;-56
2023/12/22 06:53:33;;;;;;;12.95;1.85;;;5.20;99.90;;;;;;7362806;32;20277;-56
2023/12/22 06:57:35;;;;;;;12.45;2.03;;;5.30;99.90;;;;;;7363736;32;20234;-56
2023/12/22 07:01:38;;;;;;;12.23;1.50;;;5.30;99.90;;;;;;7351753;32;20103;-57
2023/12/22 07:05:40;;;;;;;12.80;1.80;;;5.50;99.90;;;;;;7361809;32;20453;-56
2023/12/22 07:09:42;;;;;;;11.25;2.05;;;5.60;99.90;;;;;;7359481;32;20238;-55
2023/12/22 07:13:45;;;;;;;9.43;1.40;;;5.80;99.90;;;;;;7364141;32;20297;-55
2023/12/22 07:17:47;;;;;;;10.93;1.20;;;5.90;99.90;;;;;;7357724;32;20182;-55
2023/12/22 07:21:49;;;;;;;11.15;1.55;;;6.10;99.90;;;;;;7361093;32;20921;-56
2023/12/22 07:25:51;;;;;;;13.10;1.40;;;6.20;99.90;;;;;;7365950;32;20139;-55
2023/12/22 07:29:53;;;;;;;15.02;1.62;;;6.40;99.90;;;;;;7365837;32;20273;-55
2023/12/22 07:33:55;;;;;;;12.40;1.75;;;6.50;99.90;;;;;;7365675;32;20175;-55
2023/12/22 07:37:56;;;;;;;13.15;1.85;;;6.60;99.90;;;;;;7360571;32;20272;-56
2023/12/22 07:41:59;;;;;;;11.95;2.00;;;6.60;99.90;;;;;;7363757;32;20226;-56
2023/12/22 07:46:01;;;;;;;10.38;1.42;;;6.70;99.90;;;;;;7365652;32;20107;-56
2023/12/22 07:50:03;;;;;;;11.80;1.55;;;6.70;99.90;;;;;;7363162;32;20127;-55
2023/12/22 07:54:06;;;;;;;16.00;2.30;;;6.80;99.90;;;;;;7359576;32;20122;-57
2023/12/22 07:58:08;;;;;;;14.48;1.83;;;6.80;99.90;;;;;;7359447;32;20103;-56
2023/12/22 08:02:10;;;;;;;10.85;1.75;;;6.90;99.90;;;;;;7371983;32;20226;-57
2023/12/22 08:06:14;;;;;;;14.68;2.03;;;6.90;99.90;;;;;;7357780;32;20174;-57
2023/12/22 08:10:16;;;;;;;14.40;1.83;;;6.90;99.90;;;;;;7360127;32;20540;-56
2023/12/22 08:14:21;;;;;;;15.20;2.40;;;7.00;99.90;;;;;;7358592;32;20107;-56
2023/12/22 08:18:23;;;;;;;13.68;2.55;;;7.00;99.90;;;;;;7357981;32;20189;-56
2023/12/22 08:22:25;;;;;;;18.85;2.47;;;7.00;99.90;;;;;;7360688;32;20197;-57
2023/12/22 08:26:32;;;;;;;19.52;2.55;;;7.10;99.90;;;;;;7363916;32;20186;-57
2023/12/22 08:30:34;;;;;;;19.48;3.28;;;7.30;99.90;;;;;;7351961;32;20224;-56
2023/12/22 08:34:35;;;;;;;30.88;3.83;;;7.30;99.90;;;;;;7364949;32;20206;-57
2023/12/22 08:38:40;;;;;;;19.90;2.95;;;7.30;99.90;;;;;;7365038;32;20134;-57
2023/12/22 08:42:42;;;;;;;20.42;4.25;;;7.40;99.90;;;;;;7366476;32;20121;-57
2023/12/22 08:46:44;;;;;;;27.27;3.83;;;7.40;99.90;;;;;;7364492;32;20296;-55
2023/12/22 08:50:46;;;;;;;26.50;4.45;;;7.40;99.90;;;;;;7355966;32;20516;-56
2023/12/22 08:54:47;;;;;;;28.20;3.87;;;7.50;99.90;;;;;;7357668;32;20274;-55
2023/12/22 08:58:51;;;;;;;24.92;4.00;;;7.60;99.90;;;;;;7357754;32;20799;-54
2023/12/22 09:02:54;;;;;;;24.45;3.92;;;7.60;99.90;;;;;;7363487;32;20775;-56
2023/12/22 09:06:56;;;;;;;25.55;3.47;;;7.70;99.90;;;;;;7354706;32;20259;-58
2023/12/22 09:10:58;;;;;;;26.00;3.65;;;7.80;99.90;;;;;;7350798;32;20271;-57
2023/12/22 09:15:00;;;;;;;29.12;3.70;;;7.80;99.90;;;;;;7359425;32;20150;-58
2023/12/22 09:19:02;;;;;;;20.55;3.60;;;7.80;99.90;;;;;;7349991;32;20636;-58
2023/12/22 09:23:07;;;;;;;28.10;3.72;;;7.90;99.90;;;;;;7362822;32;20523;-59
2023/12/22 09:27:09;;;;;;;26.60;3.53;;;7.90;99.90;;;;;;7360450;32;20243;-56
2023/12/22 09:31:12;;;;;;;29.12;4.25;;;7.90;99.90;;;;;;7358208;32;20199;-57
2023/12/22 09:35:15;;;;;;;18.27;3.03;;;8.00;99.90;;;;;;7354329;32;20127;-56
2023/12/22 09:39:16;;;;;;;20.55;3.08;;;8.10;99.90;;;;;;7367170;32;20208;-56
2023/12/22 09:43:20;;;;;;;22.27;3.33;;;8.10;99.90;;;;;;7362474;32;20103;-57
2023/12/22 09:47:22;;;;;;;21.50;2.97;;;8.10;99.90;;;;;;7363765;32;20267;-56
2023/12/22 09:51:25;;;;;;;19.33;3.55;;;8.10;99.90;;;;;;7368708;32;20193;-56
2023/12/22 09:55:28;;;;;;;21.33;3.22;;;8.00;99.90;;;;;;7355181;32;20551;-55
2023/12/22 09:59:31;;;;;;;14.05;2.37;;;8.00;99.90;;;;;;7366755;32;20339;-57
2023/12/22 10:03:34;;;;;;;16.98;2.53;;;8.00;99.90;;;;;;7361291;32;20250;-57
2023/12/22 10:07:36;;;;;;;12.37;2.47;;;8.10;99.90;;;;;;7356671;32;20659;-57
2023/12/22 10:11:39;;;;;;;15.70;1.95;;;8.20;99.90;;;;;;7358209;32;20474;-56
2023/12/22 10:15:41;;;;;;;10.85;2.03;;;8.20;99.90;;;;;;7364176;32;20186;-57
2023/12/22 10:19:43;;;;;;;12.77;1.92;;;8.30;99.90;;;;;;7368340;32;20107;-56
2023/12/22 10:23:45;;;;;;;16.23;1.98;;;8.40;99.90;;;;;;7360971;32;20267;-57
2023/12/22 10:27:46;;;;;;;10.35;1.45;;;8.40;99.90;;;;;;7363933;32;20106;-57
2023/12/22 10:31:50;;;;;;;9.48;1.48;;;8.50;99.90;;;;;;7356620;32;20206;-60
2023/12/22 10:35:53;;;;;;;9.32;1.67;;;8.40;99.90;;;;;;7356084;32;20143;-60
2023/12/22 10:39:55;;;;;;;10.38;1.25;;;8.50;99.90;;;;;;7366874;32;20213;-61
2023/12/22 10:43:58;;;;;;;4.97;0.95;;;8.70;99.90;;;;;;7348430;32;20122;-61
2023/12/22 10:48:01;;;;;;;6.43;1.10;;;8.50;99.90;;;;;;7351005;32;20126;-60
2023/12/22 10:52:04;;;;;;;6.37;1.45;;;8.50;99.90;;;;;;7365903;32;20138;-62
2023/12/22 10:56:06;;;;;;;6.10;1.12;;;8.50;99.90;;;;;;7344812;32;20127;-56
2023/12/22 11:00:10;;;;;;;5.00;1.20;;;8.50;99.90;;;;;;7352465;32;21327;-56
2023/12/22 11:04:19;;;;;;;9.48;1.20;;;8.50;99.90;;;;;;7369152;32;20288;-56
2023/12/22 11:08:22;;;;;;;5.18;1.15;;;8.50;99.90;;;;;;7370199;32;20156;-57
2023/12/22 11:12:27;;;;;;;5.18;1.00;;;8.50;99.90;;;;;;7348565;32;20099;-56
2023/12/22 11:16:33;;;;;;;8.13;1.40;;;8.50;99.90;;;;;;7362389;32;20155;-57
2023/12/22 11:20:35;;;;;;;4.25;1.30;;;8.50;99.90;;;;;;7361954;32;20139;-56
2023/12/22 11:24:40;;;;;;;5.30;1.05;;;8.60;99.90;;;;;;7355093;32;20261;-57
2023/12/22 11:28:43;;;;;;;5.07;1.12;;;8.60;99.90;;;;;;7359282;32;20226;-57
2023/12/22 11:32:46;;;;;;;3.95;0.95;;;8.70;99.90;;;;;;7358823;32;20205;-57
2023/12/22 11:36:50;;;;;;;3.85;1.35;;;8.70;99.90;;;;;;7361884;32;20114;-56
2023/12/22 11:40:53;;;;;;;2.78;1.08;;;8.80;99.90;;;;;;7355913;32;20206;-55
2023/12/22 11:44:55;;;;;;;3.12;0.70;;;8.80;99.90;;;;;;7368820;32;20118;-56
2023/12/22 11:48:56;;;;;;;4.85;0.95;;;8.90;99.90;;;;;;7362141;32;20218;-57
2023/12/22 11:53:30;;;;;;;5.30;0.90;;;9.00;99.90;;;;;;7367237;32;20300;-57
2023/12/22 11:57:33;;;;;;;2.75;0.80;;;9.00;99.90;;;;;;7359608;32;20688;-57
2023/12/22 12:01:38;;;;;;;7.85;1.12;;;9.10;99.90;;;;;;7359937;32;20211;-56
2023/12/22 12:05:42;;;;;;;2.65;0.65;;;9.10;99.90;;;;;;7365321;32;20289;-57
2023/12/22 12:09:47;;;;;;;1.58;0.70;;;9.10;99.90;;;;;;7359982;32;20246;-58
2023/12/22 12:13:50;;;;;;;3.72;0.90;;;9.20;99.90;;;;;;7362581;32;20156;-57
2023/12/22 12:17:53;;;;;;;4.03;0.98;;;9.20;99.90;;;;;;7369476;32;20125;-56
2023/12/22 12:21:55;;;;;;;4.15;0.90;;;9.20;99.90;;;;;;7344754;32;20099;-56
2023/12/22 12:25:57;;;;;;;2.70;0.73;;;9.30;99.90;;;;;;7360342;32;20524;-56
2023/12/22 12:30:03;;;;;;;4.82;0.90;;;9.30;99.90;;;;;;7367081;32;20228;-56
2023/12/22 12:34:06;;;;;;;4.03;0.60;;;9.40;99.90;;;;;;7364223;32;20198;-56
2023/12/22 12:38:08;;;;;;;4.43;1.00;;;9.50;99.90;;;;;;7362500;32;20134;-56
2023/12/22 12:42:15;;;;;;;5.07;1.00;;;9.60;99.90;;;;;;7356658;32;20129;-56
2023/12/22 12:46:17;;;;;;;3.03;1.08;;;9.60;99.90;;;;;;7354827;32;20125;-57
2023/12/22 12:50:22;;;;;;;3.85;0.70;;;9.60;99.90;;;;;;7357772;32;20186;-56
2023/12/22 12:54:26;;;;;;;2.87;0.77;;;9.60;99.90;;;;;;7361772;32;20122;-56
2023/12/22 12:58:34;;;;;;;2.00;0.80;;;9.60;99.90;;;;;;7362485;32;20195;-57
2023/12/22 13:02:36;;;;;;;3.95;0.88;;;9.60;99.90;;;;;;7357942;32;20591;-55
2023/12/22 13:06:51;;;;;;;4.70;0.82;;;9.60;99.90;;;;;;7362419;32;20183;-57
2023/12/22 13:11:01;;;;;;;4.40;0.60;;;9.50;99.90;;;;;;7359964;32;20110;-56
2023/12/22 13:15:03;;;;;;;5.20;0.70;;;9.40;99.90;;;;;;7356741;32;20103;-56
2023/12/22 13:19:05;;;;;;;3.37;1.00;;;9.30;99.90;;;;;;7355781;32;20333;-57
2023/12/22 13:23:07;;;;;;;2.87;0.80;;;9.30;99.90;;;;;;7366746;32;20204;-57
2023/12/22 13:27:09;;;;;;;5.95;0.85;;;9.30;99.90;;;;;;7362006;32;20158;-57
2023/12/22 13:31:13;;;;;;;4.93;0.90;;;9.30;99.90;;;;;;7366462;32;20130;-57
2023/12/22 13:35:15;;;;;;;6.12;0.98;;;9.40;99.90;;;;;;7350889;32;20938;-57
2023/12/22 13:39:17;;;;;;;3.05;1.00;;;9.40;99.90;;;;;;7361533;32;20250;-56
2023/12/22 13:43:19;;;;;;;6.95;1.70;;;9.50;99.90;;;;;;7361926;32;20122;-57
2023/12/22 13:47:22;;;;;;;3.70;1.20;;;9.20;99.90;;;;;;7345015;32;20135;-57
2023/12/22 13:51:25;;;;;;;4.47;1.27;;;9.00;99.90;;;;;;7362359;32;20099;-57
2023/12/22 13:55:27;;;;;;;5.20;1.20;;;8.80;99.90;;;;;;7359423;32;20220;-56
2023/12/22 13:59:35;;;;;;;5.95;1.35;;;8.70;99.90;;;;;;7362860;32;20107;-57
2023/12/22 14:03:37;;;;;;;3.83;1.27;;;8.80;99.90;;;;;;7358530;32;20115;-56
2023/12/22 14:07:38;;;;;;;7.37;1.30;;;8.90;99.90;;;;;;7355265;32;20413;-57
2023/12/22 14:11:40;;;;;;;3.58;1.00;;;8.90;99.90;;;;;;7360165;32;20525;-57
2023/12/22 14:15:57;;;;;;;7.68;1.08;;;8.90;99.90;;;;;;7361371;32;20280;-57
2023/12/22 14:19:59;;;;;;;5.82;1.40;;;9.00;99.90;;;;;;7363477;32;20143;-57
2023/12/22 14:24:03;;;;;;;5.82;1.33;;;9.00;99.90;;;;;;7365471;32;20137;-57
2023/12/22 14:28:05;;;;;;;3.87;1.35;;;9.00;99.90;;;;;;7361630;32;20119;-57
2023/12/22 14:32:11;;;;;;;4.43;1.20;;;9.10;99.90;;;;;;7362769;32;20102;-57
2023/12/22 14:36:12;;;;;;;4.72;1.15;;;9.10;99.90;;;;;;7360456;32;20125;-56
2023/12/22 14:40:14;;;;;;;4.68;1.12;;;9.20;99.90;;;;;;7362986;32;20155;-56
2023/12/22 14:44:16;;;;;;;4.97;1.20;;;9.10;99.90;;;;;;7365711;32;20277;-57
2023/12/22 14:48:18;;;;;;;7.45;1.02;;;9.10;99.90;;;;;;7367575;32;20459;-56
2023/12/22 14:52:20;;;;;;;12.98;1.45;;;9.10;99.90;;;;;;7362731;32;20506;-56
2023/12/22 14:56:21;;;;;;;5.78;1.23;;;9.10;99.90;;;;;;7365810;32;20326;-57
2023/12/22 15:00:23;;;;;;;3.08;0.85;;;9.10;99.90;;;;;;7368105;32;20183;-58
2023/12/22 15:04:25;;;;;;;5.85;1.02;;;9.10;99.90;;;;;;7351131;32;20119;-57
2023/12/22 15:08:27;;;;;;;4.00;1.17;;;9.20;99.90;;;;;;7368354;32;20126;-57
2023/12/22 15:12:32;;;;;;;3.55;1.08;;;9.10;99.90;;;;;;7361816;32;20107;-57
2023/12/22 15:16:44;;;;;;;3.30;0.90;;;9.00;99.90;;;;;;7359069;32;20162;-55
2023/12/22 15:20:48;;;;;;;9.40;1.40;;;9.00;99.90;;;;;;7358754;32;20198;-57
2023/12/22 15:24:50;;;;;;;6.15;1.27;;;8.90;99.90;;;;;;7358726;32;20210;-56
2023/12/22 15:28:52;;;;;;;5.32;1.30;;;9.00;99.90;;;;;;7357594;32;20202;-57
2023/12/22 15:32:54;;;;;;;6.30;1.08;;;8.90;99.90;;;;;;7362203;32;20283;-57
2023/12/22 15:36:55;;;;;;;6.22;1.20;;;9.00;99.90;;;;;;7369220;32;20176;-56
2023/12/22 15:41:01;;;;;;;6.53;0.90;;;9.00;99.90;;;;;;7362537;32;20299;-56
2023/12/22 15:45:03;;;;;;;6.68;1.00;;;9.00;99.90;;;;;;7364613;32;20275;-55
2023/12/22 15:49:05;;;;;;;8.68;1.25;;;9.10;99.90;;;;;;7361532;32;20497;-55
2023/12/22 15:53:07;;;;;;;5.25;1.02;;;9.00;99.90;;;;;;7358333;32;20196;-55
2023/12/22 15:57:09;;;;;;;9.73;1.30;;;9.10;99.90;;;;;;7362341;32;20103;-55
2023/12/22 16:01:12;;;;;;;10.25;1.25;;;9.00;99.90;;;;;;7358214;32;20183;-55
2023/12/22 16:05:14;;;;;;;6.75;1.10;;;9.00;99.90;;;;;;7340369;32;20102;-55
2023/12/22 16:09:16;;;;;;;5.72;1.35;;;9.00;99.90;;;;;;7352410;32;20202;-55
2023/12/22 16:13:18;;;;;;;9.35;1.40;;;9.10;99.90;;;;;;7363532;32;20154;-55
2023/12/22 16:17:20;;;;;;;7.55;1.30;;;9.10;99.90;;;;;;7355249;32;20233;-55
2023/12/22 16:21:22;;;;;;;3.33;0.73;;;9.10;99.90;;;;;;7357954;32;20293;-54
2023/12/22 16:25:24;;;;;;;4.40;0.95;;;9.10;99.90;;;;;;7360578;32;20253;-55
2023/12/22 16:29:26;;;;;;;5.10;1.05;;;9.00;99.90;;;;;;7362831;32;20397;-56
2023/12/22 16:33:28;;;;;;;2.97;0.90;;;8.90;99.90;;;;;;7365018;32;20322;-55
2023/12/22 16:37:30;;;;;;;7.25;1.50;;;8.90;99.90;;;;;;7360370;32;20391;-55
2023/12/22 16:41:43;;;;;;;5.45;1.27;;;8.90;99.90;;;;;;7362629;32;20126;-55
2023/12/22 16:45:44;;;;;;;6.05;1.37;;;8.90;99.90;;;;;;7351247;32;20170;-55
2023/12/22 16:49:46;;;;;;;9.55;1.48;;;8.80;99.90;;;;;;7356641;32;20205;-56
2023/12/22 16:53:48;;;;;;;7.75;1.40;;;8.70;99.90;;;;;;7365499;32;20229;-55
2023/12/22 16:57:50;;;;;;;5.78;1.40;;;8.70;99.90;;;;;;7358520;32;20284;-56
2023/12/22 17:01:52;;;;;;;7.50;1.45;;;8.70;99.90;;;;;;7356126;32;20193;-55
2023/12/22 17:06:14;;;;;;;8.00;1.30;;;8.80;99.90;;;;;;7357566;32;20175;-55
2023/12/22 17:10:16;;;;;;;7.07;1.52;;;8.90;99.90;;;;;;7359960;32;20125;-56
2023/12/22 17:14:18;;;;;;;6.65;1.37;;;9.00;99.90;;;;;;7361859;32;20260;-55
2023/12/22 17:18:21;;;;;;;9.63;1.60;;;9.00;99.90;;;;;;7352097;32;20279;-56
2023/12/22 17:22:23;;;;;;;10.43;1.95;;;9.00;99.90;;;;;;7355818;32;20211;-57
2023/12/22 17:26:24;;;;;;;10.30;2.08;;;9.00;99.90;;;;;;7360824;32;20201;-56
2023/12/22 17:30:27;;;;;;;12.60;1.77;;;9.00;99.90;;;;;;7361226;32;20254;-56
2023/12/22 17:34:29;;;;;;;7.47;1.90;;;9.00;99.90;;;;;;7365554;32;20133;-56
2023/12/22 17:38:31;;;;;;;7.97;1.87;;;9.00;99.90;;;;;;7361775;32;20770;-56
2023/12/22 17:42:33;;;;;;;9.95;1.62;;;9.10;99.90;;;;;;7359364;32;20307;-53
2023/12/22 17:46:34;;;;;;;11.43;1.92;;;9.10;99.90;;;;;;7362013;32;20280;-56
2023/12/22 17:50:36;;;;;;;7.53;1.17;;;9.20;99.90;;;;;;7364166;32;20103;-56
2023/12/22 17:54:38;;;;;;;8.07;1.80;;;9.20;99.90;;;;;;7355490;32;20099;-56
2023/12/22 17:58:40;;;;;;;6.40;1.65;;;9.10;99.90;;;;;;7357345;32;20181;-56
2023/12/22 18:02:42;;;;;;;10.75;1.77;;;9.20;99.90;;;;;;7365427;32;20103;-55
2023/12/22 18:06:43;;;;;;;4.22;1.12;;;9.20;99.90;;;;;;7360913;32;20156;-55
2023/12/22 18:10:46;;;;;;;7.60;1.50;;;9.10;99.90;;;;;;7367323;32;20489;-56
2023/12/22 18:14:47;;;;;;;9.70;1.70;;;9.00;99.90;;;;;;7366074;32;20215;-55
2023/12/22 18:18:49;;;;;;;9.73;2.05;;;9.00;99.90;;;;;;7365240;32;20170;-54
2023/12/22 18:22:51;;;;;;;6.93;1.92;;;9.00;99.90;;;;;;7370472;32;20179;-53
2023/12/22 18:26:54;;;;;;;7.82;1.30;;;9.20;99.90;;;;;;7362524;32;20099;-53
2023/12/22 18:30:55;;;;;;;9.57;1.50;;;9.20;99.90;;;;;;7367602;32;20169;-53
2023/12/22 18:34:58;;;;;;;7.10;1.30;;;9.30;99.90;;;;;;7367636;32;20256;-52
2023/12/22 18:39:00;;;;;;;2.97;0.82;;;9.20;99.90;;;;;;7366257;32;20123;-53
2023/12/22 18:43:03;;;;;;;4.20;0.60;;;9.20;99.90;;;;;;7362938;32;20221;-57
2023/12/22 18:47:04;;;;;;;4.45;0.70;;;9.10;99.90;;;;;;7363917;32;20225;-55
2023/12/22 18:51:14;;;;;;;8.95;1.55;;;8.80;99.90;;;;;;7360840;32;20236;-55
2023/12/22 18:55:17;;;;;;;5.97;1.40;;;8.70;99.90;;;;;;7358264;32;20508;-57
2023/12/22 18:59:19;;;;;;;8.20;1.37;;;8.60;99.90;;;;;;7348121;32;20111;-56
2023/12/22 19:03:20;;;;;;;8.15;1.52;;;8.50;99.90;;;;;;7355701;32;20126;-55
2023/12/22 19:07:22;;;;;;;10.70;1.45;;;8.70;99.90;;;;;;7362264;32;20199;-59
2023/12/22 19:11:24;;;;;;;5.93;1.08;;;8.70;99.90;;;;;;7359923;32;20101;-59
2023/12/22 19:15:26;;;;;;;7.57;1.83;;;8.80;99.90;;;;;;7358205;32;20111;-60
2023/12/22 19:19:28;;;;;;;5.25;1.12;;;8.70;99.90;;;;;;7370094;32;20129;-59
2023/12/22 19:23:30;;;;;;;5.18;1.40;;;8.70;99.90;;;;;;7356982;32;20128;-57
2023/12/22 19:27:32;;;;;;;7.53;1.35;;;8.70;99.90;;;;;;7363980;32;20110;-57
2023/12/22 19:31:35;;;;;;;10.27;1.42;;;8.70;99.90;;;;;;7362021;32;20138;-58
2023/12/22 19:35:36;;;;;;;5.50;0.95;;;8.70;99.90;;;;;;7355948;32;20218;-58
2023/12/22 19:39:38;;;;;;;4.47;0.85;;;8.60;99.90;;;;;;7358662;32;20153;-57
2023/12/22 19:43:40;;;;;;;6.07;0.82;;;8.50;99.90;;;;;;7357915;32;20251;-57
2023/12/22 19:47:42;;;;;;;6.15;1.10;;;8.40;99.90;;;;;;7366942;32;20481;-57
2023/12/22 19:51:44;;;;;;;8.40;1.35;;;8.30;99.90;;;;;;7364985;32;20234;-57
2023/12/22 19:55:48;;;;;;;3.20;0.80;;;8.30;99.90;;;;;;7356800;32;20216;-56
2023/12/22 19:59:49;;;;;;;9.02;1.50;;;8.40;99.90;;;;;;7366312;32;20598;-57
2023/12/22 20:03:51;;;;;;;10.13;1.33;;;8.40;99.90;;;;;;7365193;32;20694;-57
2023/12/22 20:07:53;;;;;;;5.45;1.35;;;8.40;99.90;;;;;;7358878;32;20099;-57
2023/12/22 20:11:57;;;;;;;5.80;1.00;;;8.50;99.90;;;;;;7361604;32;20117;-57
2023/12/22 20:16:00;;;;;;;4.78;0.80;;;8.40;99.90;;;;;;7359595;32;20575;-58
2023/12/22 20:20:04;;;;;;;6.07;1.05;;;8.50;99.90;;;;;;7344111;32;20144;-57
2023/12/22 20:24:07;;;;;;;4.70;1.15;;;8.50;99.90;;;;;;7363153;32;20107;-57
2023/12/22 20:28:10;;;;;;;3.95;1.10;;;8.60;99.90;;;;;;7361444;32;20482;-57
2023/12/22 20:32:11;;;;;;;6.55;1.20;;;8.60;99.90;;;;;;7364609;32;20122;-57
2023/12/22 20:36:14;;;;;;;8.95;2.17;;;8.70;99.90;;;;;;7356521;32;20638;-57
2023/12/22 20:40:15;;;;;;;9.32;1.17;;;8.50;99.90;;;;;;7358781;32;20114;-60
2023/12/22 20:44:18;;;;;;;6.10;1.08;;;8.50;99.90;;;;;;7360093;32;20359;-56
2023/12/22 20:48:20;;;;;;;4.00;0.75;;;8.30;99.90;;;;;;7354433;32;20164;-56
2023/12/22 20:52:22;;;;;;;1.50;0.30;;;7.90;99.90;;;;;;7366019;32;20127;-56
2023/12/22 20:56:23;;;;;;;3.40;0.40;;;7.40;99.90;;;;;;7360809;32;20194;-56
2023/12/22 21:00:27;;;;;;;3.60;0.70;;;7.10;99.90;;;;;;7363042;32;20130;-56
2023/12/22 21:04:29;;;;;;;2.97;0.93;;;6.90;99.90;;;;;;7360988;32;20453;-56
2023/12/22 21:08:31;;;;;;;5.00;1.15;;;6.90;99.90;;;;;;7358303;32;20270;-56
2023/12/22 21:12:32;;;;;;;5.82;1.77;;;6.90;99.90;;;;;;7356612;32;20512;-56